EWG2GR EDDK-LGRP
Flight info
| Callsign | EWG2GR |
|---|---|
| Flight time | 2h 52m |
| Altitude | 35000 |
| Route | KUMIK1R KUMIK L603 TESGA DCT ESATI DCT DETEV DCT DINKU DCT BESNI DCT LATLO DCT OBEDI DCT KFT DCT MAGAM DCT MEDUX UM867 KOGAT DCT ERANA UL737 TSL UN130 MES UN139 LURUS UL995 CODIC |
| Aircraft | A321/M-SDE2E3FGIJ1LORWXY/HB1 |
Departure
| Time | 2026-05-07 16:53 |
|---|---|
| Airport | Cologne Bonn Airport (EDDK) |
Arrival
| Time | 2026-05-07 19:45 |
|---|---|
| Airport | Rhodes International Airport "Diagoras" (LGRP) |
| Time | Latitude | Longitude | Altitude | Speed | Heading |
|---|---|---|---|---|---|
| 2026-05-07 16:21 | 50.88178 | 7.11954 | 232 ft | 0 kts | 216° |
| 2026-05-07 16:38 | 50.88185 | 7.11962 | 232 ft | 4 kts | 218° |
| 2026-05-07 16:38 | 50.88203 | 7.11986 | 236 ft | 3 kts | 215° |
| 2026-05-07 16:39 | 50.88224 | 7.12001 | 234 ft | 4 kts | 160° |
| 2026-05-07 16:39 | 50.88238 | 7.11975 | 233 ft | 4 kts | 113° |
| 2026-05-07 16:39 | 50.88246 | 7.11951 | 232 ft | 0 kts | 126° |
| 2026-05-07 16:42 | 50.88246 | 7.11952 | 232 ft | 0 kts | 126° |
| 2026-05-07 16:42 | 50.88242 | 7.11959 | 232 ft | 1 kts | 125° |
| 2026-05-07 16:42 | 50.88229 | 7.11988 | 233 ft | 5 kts | 126° |
| 2026-05-07 16:42 | 50.88202 | 7.12047 | 232 ft | 8 kts | 126° |
| 2026-05-07 16:43 | 50.88167 | 7.12124 | 233 ft | 9 kts | 126° |
| 2026-05-07 16:43 | 50.88128 | 7.12209 | 234 ft | 10 kts | 126° |
| 2026-05-07 16:43 | 50.88098 | 7.12308 | 232 ft | 10 kts | 103° |
| 2026-05-07 16:43 | 50.88059 | 7.12407 | 232 ft | 11 kts | 131° |
| 2026-05-07 16:44 | 50.88002 | 7.12493 | 232 ft | 12 kts | 137° |
| 2026-05-07 16:44 | 50.87940 | 7.12582 | 232 ft | 12 kts | 138° |
| 2026-05-07 16:44 | 50.87858 | 7.12612 | 232 ft | 13 kts | 173° |
| 2026-05-07 16:44 | 50.87781 | 7.12682 | 232 ft | 13 kts | 137° |
| 2026-05-07 16:45 | 50.87711 | 7.12783 | 232 ft | 14 kts | 137° |
| 2026-05-07 16:45 | 50.87633 | 7.12895 | 232 ft | 15 kts | 137° |
| 2026-05-07 16:45 | 50.87553 | 7.13012 | 232 ft | 16 kts | 137° |
| 2026-05-07 16:45 | 50.87470 | 7.13132 | 232 ft | 16 kts | 137° |
| 2026-05-07 16:46 | 50.87384 | 7.13257 | 232 ft | 17 kts | 133° |
| 2026-05-07 16:46 | 50.87349 | 7.13429 | 232 ft | 17 kts | 110° |
| 2026-05-07 16:46 | 50.87275 | 7.13569 | 235 ft | 16 kts | 137° |
| 2026-05-07 16:46 | 50.87193 | 7.13688 | 238 ft | 16 kts | 137° |
| 2026-05-07 16:47 | 50.87105 | 7.13815 | 242 ft | 18 kts | 137° |
| 2026-05-07 16:47 | 50.87010 | 7.13953 | 246 ft | 19 kts | 137° |
| 2026-05-07 16:47 | 50.86916 | 7.14090 | 255 ft | 18 kts | 137° |
| 2026-05-07 16:47 | 50.86811 | 7.14241 | 255 ft | 21 kts | 137° |
| 2026-05-07 16:48 | 50.86713 | 7.14383 | 262 ft | 17 kts | 137° |
| 2026-05-07 16:48 | 50.86626 | 7.14486 | 263 ft | 13 kts | 169° |
| 2026-05-07 16:48 | 50.86535 | 7.14448 | 264 ft | 14 kts | 174° |
| 2026-05-07 16:48 | 50.86451 | 7.14547 | 269 ft | 17 kts | 137° |
| 2026-05-07 16:49 | 50.86352 | 7.14690 | 275 ft | 21 kts | 137° |
| 2026-05-07 16:49 | 50.86242 | 7.14850 | 281 ft | 21 kts | 137° |
| 2026-05-07 16:49 | 50.86140 | 7.14997 | 286 ft | 21 kts | 137° |
| 2026-05-07 16:49 | 50.86021 | 7.15170 | 294 ft | 25 kts | 137° |
| 2026-05-07 16:50 | 50.85899 | 7.15347 | 297 ft | 23 kts | 137° |
| 2026-05-07 16:50 | 50.85786 | 7.15510 | 300 ft | 21 kts | 137° |
| 2026-05-07 16:50 | 50.85682 | 7.15660 | 303 ft | 19 kts | 137° |
| 2026-05-07 16:50 | 50.85587 | 7.15799 | 305 ft | 18 kts | 137° |
| 2026-05-07 16:51 | 50.85499 | 7.15926 | 308 ft | 17 kts | 137° |
| 2026-05-07 16:51 | 50.85413 | 7.16051 | 308 ft | 17 kts | 137° |
| 2026-05-07 16:51 | 50.85342 | 7.16200 | 311 ft | 17 kts | 110° |
| 2026-05-07 16:51 | 50.85353 | 7.16385 | 308 ft | 17 kts | 65° |
| 2026-05-07 16:52 | 50.85443 | 7.16506 | 308 ft | 18 kts | 18° |
| 2026-05-07 16:52 | 50.85563 | 7.16494 | 308 ft | 18 kts | 334° |
| 2026-05-07 16:52 | 50.85678 | 7.16341 | 309 ft | 39 kts | 317° |
| 2026-05-07 16:52 | 50.86060 | 7.15787 | 296 ft | 108 kts | 317° |
| 2026-05-07 16:53 | 50.86772 | 7.14755 | 268 ft | 164 kts | 317° |
| 2026-05-07 16:53 | 50.87681 | 7.13428 | 529 ft | 185 kts | 320° |
| 2026-05-07 16:53 | 50.88625 | 7.12071 | 1288 ft | 182 kts | 321° |
| 2026-05-07 16:53 | 50.89771 | 7.11265 | 1744 ft | 190 kts | 359° |
| 2026-05-07 16:54 | 50.91098 | 7.11854 | 1969 ft | 207 kts | 23° |
| 2026-05-07 16:54 | 50.92425 | 7.12821 | 2434 ft | 212 kts | 25° |
| 2026-05-07 16:54 | 50.93589 | 7.14244 | 3001 ft | 216 kts | 51° |
| 2026-05-07 16:54 | 50.94348 | 7.16410 | 3277 ft | 235 kts | 62° |
| 2026-05-07 16:55 | 50.95100 | 7.18833 | 3527 ft | 254 kts | 63° |
| 2026-05-07 16:55 | 50.95893 | 7.21388 | 4080 ft | 261 kts | 62° |
| 2026-05-07 16:55 | 50.96703 | 7.23985 | 4759 ft | 264 kts | 62° |
| 2026-05-07 16:55 | 50.97528 | 7.26614 | 5401 ft | 268 kts | 62° |
| 2026-05-07 16:56 | 50.98364 | 7.29274 | 6062 ft | 272 kts | 62° |
| 2026-05-07 16:56 | 50.99215 | 7.31976 | 6698 ft | 275 kts | 63° |
| 2026-05-07 16:56 | 51.00947 | 7.37480 | 7947 ft | 282 kts | 64° |
| 2026-05-07 16:57 | 51.01573 | 7.40455 | 8549 ft | 287 kts | 80° |
| 2026-05-07 16:57 | 51.01662 | 7.43632 | 9169 ft | 290 kts | 96° |
| 2026-05-07 16:57 | 51.01210 | 7.46756 | 9771 ft | 293 kts | 108° |
| 2026-05-07 16:57 | 51.00588 | 7.49867 | 10281 ft | 301 kts | 108° |
| 2026-05-07 16:58 | 50.99943 | 7.53141 | 10399 ft | 320 kts | 108° |
| 2026-05-07 16:58 | 50.99262 | 7.56617 | 10529 ft | 339 kts | 107° |
| 2026-05-07 16:58 | 50.98548 | 7.60269 | 10722 ft | 353 kts | 107° |
| 2026-05-07 16:58 | 50.97811 | 7.64029 | 11167 ft | 359 kts | 107° |
| 2026-05-07 16:59 | 50.97065 | 7.67838 | 11734 ft | 363 kts | 107° |
| 2026-05-07 16:59 | 50.96310 | 7.71672 | 12309 ft | 365 kts | 107° |
| 2026-05-07 16:59 | 50.95550 | 7.75529 | 12852 ft | 368 kts | 107° |
| 2026-05-07 16:59 | 50.94776 | 7.79406 | 13372 ft | 371 kts | 109° |
| 2026-05-07 17:00 | 50.93727 | 7.83159 | 13881 ft | 374 kts | 120° |
| 2026-05-07 17:00 | 50.92336 | 7.86592 | 14347 ft | 376 kts | 124° |
| 2026-05-07 17:00 | 50.90885 | 7.90050 | 14855 ft | 377 kts | 124° |
| 2026-05-07 17:00 | 50.89429 | 7.93531 | 15316 ft | 380 kts | 124° |
| 2026-05-07 17:01 | 50.87962 | 7.97036 | 15786 ft | 383 kts | 124° |
| 2026-05-07 17:01 | 50.86489 | 8.00556 | 16253 ft | 385 kts | 124° |
| 2026-05-07 17:01 | 50.85002 | 8.04102 | 16732 ft | 388 kts | 124° |
| 2026-05-07 17:01 | 50.83504 | 8.07675 | 17233 ft | 391 kts | 124° |
| 2026-05-07 17:02 | 50.82000 | 8.11261 | 17722 ft | 392 kts | 124° |
| 2026-05-07 17:02 | 50.80486 | 8.14872 | 18167 ft | 395 kts | 124° |
| 2026-05-07 17:02 | 50.78960 | 8.18505 | 18564 ft | 398 kts | 124° |
| 2026-05-07 17:02 | 50.77420 | 8.22158 | 18931 ft | 400 kts | 124° |
| 2026-05-07 17:03 | 50.75870 | 8.25825 | 19327 ft | 402 kts | 124° |
| 2026-05-07 17:03 | 50.74310 | 8.29503 | 19744 ft | 404 kts | 124° |
| 2026-05-07 17:03 | 50.72740 | 8.33195 | 20117 ft | 406 kts | 124° |
| 2026-05-07 17:03 | 50.71133 | 8.36865 | 20489 ft | 408 kts | 129° |
| 2026-05-07 17:04 | 50.69212 | 8.40170 | 20852 ft | 409 kts | 139° |
| 2026-05-07 17:04 | 50.66954 | 8.42909 | 21206 ft | 411 kts | 149° |
| 2026-05-07 17:04 | 50.64454 | 8.45105 | 21559 ft | 412 kts | 153° |
| 2026-05-07 17:04 | 50.61914 | 8.47239 | 21919 ft | 415 kts | 153° |
| 2026-05-07 17:05 | 50.59362 | 8.49385 | 22292 ft | 417 kts | 153° |
| 2026-05-07 17:05 | 50.56797 | 8.51540 | 22654 ft | 419 kts | 153° |
| 2026-05-07 17:05 | 50.54224 | 8.53705 | 22983 ft | 421 kts | 153° |
| 2026-05-07 17:05 | 50.51630 | 8.55887 | 23331 ft | 424 kts | 153° |
| 2026-05-07 17:06 | 50.49023 | 8.58082 | 23665 ft | 426 kts | 153° |
| 2026-05-07 17:06 | 50.47286 | 8.59542 | 23860 ft | 428 kts | 153° |
| 2026-05-07 17:06 | 50.44738 | 8.61954 | 24144 ft | 430 kts | 144° |
| 2026-05-07 17:06 | 50.42441 | 8.64981 | 24436 ft | 433 kts | 136° |
| 2026-05-07 17:07 | 50.40276 | 8.68278 | 24725 ft | 434 kts | 136° |
| 2026-05-07 17:07 | 50.38098 | 8.71577 | 25024 ft | 436 kts | 136° |
| 2026-05-07 17:07 | 50.35910 | 8.74875 | 25315 ft | 438 kts | 137° |
| 2026-05-07 17:07 | 50.33710 | 8.78177 | 25604 ft | 439 kts | 137° |
| 2026-05-07 17:08 | 50.31494 | 8.81491 | 25894 ft | 441 kts | 137° |
| 2026-05-07 17:08 | 50.29268 | 8.84815 | 26159 ft | 443 kts | 137° |
| 2026-05-07 17:08 | 50.27032 | 8.88156 | 26434 ft | 445 kts | 137° |
| 2026-05-07 17:08 | 50.24788 | 8.91512 | 26711 ft | 447 kts | 137° |
| 2026-05-07 17:09 | 50.22537 | 8.94881 | 26989 ft | 449 kts | 137° |
| 2026-05-07 17:09 | 50.20279 | 8.98255 | 27263 ft | 451 kts | 137° |
| 2026-05-07 17:09 | 50.18007 | 9.01640 | 27545 ft | 452 kts | 137° |
| 2026-05-07 17:09 | 50.15726 | 9.05038 | 27819 ft | 454 kts | 137° |
| 2026-05-07 17:10 | 50.13443 | 9.08440 | 28080 ft | 456 kts | 137° |
| 2026-05-07 17:10 | 50.11141 | 9.11859 | 28332 ft | 458 kts | 137° |
| 2026-05-07 17:10 | 50.08828 | 9.15281 | 28591 ft | 459 kts | 137° |
| 2026-05-07 17:10 | 50.06505 | 9.18708 | 28857 ft | 460 kts | 137° |
| 2026-05-07 17:11 | 50.04178 | 9.22144 | 29098 ft | 462 kts | 137° |
| 2026-05-07 17:11 | 50.01850 | 9.25585 | 29320 ft | 463 kts | 137° |
| 2026-05-07 17:11 | 49.99508 | 9.29043 | 29523 ft | 465 kts | 137° |
| 2026-05-07 17:11 | 49.97157 | 9.32503 | 29774 ft | 466 kts | 137° |
| 2026-05-07 17:12 | 49.94805 | 9.35960 | 30080 ft | 465 kts | 137° |
| 2026-05-07 17:12 | 49.92463 | 9.39403 | 30335 ft | 464 kts | 137° |
| 2026-05-07 17:12 | 49.90120 | 9.42847 | 30566 ft | 464 kts | 137° |
| 2026-05-07 17:12 | 49.87775 | 9.46287 | 30793 ft | 464 kts | 137° |
| 2026-05-07 17:13 | 49.85434 | 9.49710 | 31015 ft | 463 kts | 137° |
| 2026-05-07 17:13 | 49.83086 | 9.53135 | 31235 ft | 463 kts | 137° |
| 2026-05-07 17:13 | 49.80737 | 9.56555 | 31438 ft | 463 kts | 137° |
| 2026-05-07 17:13 | 49.78390 | 9.59969 | 31657 ft | 463 kts | 137° |
| 2026-05-07 17:14 | 49.76040 | 9.63385 | 31860 ft | 463 kts | 137° |
| 2026-05-07 17:14 | 49.73721 | 9.66751 | 32069 ft | 463 kts | 137° |
| 2026-05-07 17:14 | 49.71375 | 9.70152 | 32278 ft | 463 kts | 137° |
| 2026-05-07 17:14 | 49.69023 | 9.73553 | 32487 ft | 463 kts | 138° |
| 2026-05-07 17:15 | 49.66670 | 9.76947 | 32690 ft | 463 kts | 138° |
| 2026-05-07 17:15 | 49.64316 | 9.80338 | 32878 ft | 463 kts | 138° |
| 2026-05-07 17:15 | 49.61968 | 9.83725 | 33078 ft | 463 kts | 138° |
| 2026-05-07 17:15 | 49.59616 | 9.87111 | 33270 ft | 462 kts | 138° |
| 2026-05-07 17:16 | 49.57263 | 9.90491 | 33469 ft | 462 kts | 138° |
| 2026-05-07 17:16 | 49.54908 | 9.93862 | 33659 ft | 462 kts | 138° |
| 2026-05-07 17:16 | 49.52555 | 9.97229 | 33844 ft | 462 kts | 138° |
| 2026-05-07 17:16 | 49.50206 | 10.00590 | 34008 ft | 462 kts | 138° |
| 2026-05-07 17:17 | 49.47853 | 10.03953 | 34164 ft | 462 kts | 138° |
| 2026-05-07 17:17 | 49.45496 | 10.07316 | 34305 ft | 462 kts | 139° |
| 2026-05-07 17:17 | 49.43137 | 10.10676 | 34446 ft | 462 kts | 139° |
| 2026-05-07 17:17 | 49.40782 | 10.14022 | 34584 ft | 462 kts | 139° |
| 2026-05-07 17:18 | 49.38421 | 10.17376 | 34707 ft | 462 kts | 139° |
| 2026-05-07 17:18 | 49.36060 | 10.20728 | 34858 ft | 462 kts | 139° |
| 2026-05-07 17:18 | 49.33700 | 10.24075 | 35012 ft | 462 kts | 139° |
| 2026-05-07 17:18 | 49.31338 | 10.27420 | 35067 ft | 462 kts | 139° |
| 2026-05-07 17:19 | 49.26615 | 10.34090 | 35066 ft | 462 kts | 139° |
| 2026-05-07 17:19 | 49.21919 | 10.40734 | 35072 ft | 463 kts | 138° |
| 2026-05-07 17:20 | 49.17257 | 10.47628 | 35091 ft | 464 kts | 137° |
| 2026-05-07 17:20 | 49.12695 | 10.54508 | 35098 ft | 464 kts | 137° |
| 2026-05-07 17:21 | 49.08089 | 10.61392 | 35102 ft | 464 kts | 137° |
| 2026-05-07 17:21 | 49.03447 | 10.68236 | 35101 ft | 464 kts | 138° |
| 2026-05-07 17:22 | 48.98798 | 10.75070 | 35091 ft | 465 kts | 138° |
| 2026-05-07 17:22 | 48.94147 | 10.81890 | 35084 ft | 465 kts | 138° |
| 2026-05-07 17:23 | 48.89482 | 10.88704 | 35073 ft | 465 kts | 138° |
| 2026-05-07 17:23 | 48.84816 | 10.95519 | 35057 ft | 465 kts | 138° |
| 2026-05-07 17:24 | 48.80148 | 11.02328 | 35047 ft | 465 kts | 139° |
| 2026-05-07 17:24 | 48.75476 | 11.09111 | 35034 ft | 465 kts | 139° |
| 2026-05-07 17:25 | 48.70787 | 11.15888 | 35037 ft | 466 kts | 139° |
| 2026-05-07 17:25 | 48.66093 | 11.22663 | 35041 ft | 466 kts | 139° |
| 2026-05-07 17:26 | 48.61490 | 11.29573 | 35045 ft | 468 kts | 135° |
| 2026-05-07 17:26 | 48.57141 | 11.36896 | 35047 ft | 468 kts | 133° |
| 2026-05-07 17:27 | 48.52853 | 11.44296 | 35050 ft | 468 kts | 134° |
| 2026-05-07 17:27 | 48.48529 | 11.51552 | 35053 ft | 468 kts | 135° |
| 2026-05-07 17:28 | 48.44123 | 11.58767 | 35059 ft | 468 kts | 135° |
| 2026-05-07 17:28 | 48.39712 | 11.65983 | 35069 ft | 469 kts | 135° |
| 2026-05-07 17:29 | 48.35309 | 11.73201 | 35069 ft | 469 kts | 135° |
| 2026-05-07 17:29 | 48.30898 | 11.80421 | 35089 ft | 469 kts | 135° |
| 2026-05-07 17:30 | 48.26488 | 11.87631 | 35069 ft | 469 kts | 135° |
| 2026-05-07 17:30 | 48.22071 | 11.94838 | 35066 ft | 469 kts | 135° |
| 2026-05-07 17:31 | 48.17645 | 12.02022 | 35077 ft | 469 kts | 135° |
| 2026-05-07 17:31 | 48.13211 | 12.09192 | 35058 ft | 469 kts | 136° |
| 2026-05-07 17:32 | 48.08775 | 12.16348 | 35052 ft | 469 kts | 136° |
| 2026-05-07 17:32 | 48.04341 | 12.23487 | 35056 ft | 469 kts | 136° |
| 2026-05-07 17:33 | 47.99899 | 12.30615 | 35058 ft | 469 kts | 136° |
| 2026-05-07 17:33 | 47.95452 | 12.37734 | 35051 ft | 469 kts | 136° |
| 2026-05-07 17:34 | 47.91033 | 12.44802 | 35041 ft | 470 kts | 136° |
| 2026-05-07 17:34 | 47.86570 | 12.51920 | 35055 ft | 470 kts | 136° |
| 2026-05-07 17:35 | 47.82093 | 12.59026 | 35047 ft | 471 kts | 136° |
| 2026-05-07 17:35 | 47.77609 | 12.66118 | 35062 ft | 471 kts | 136° |
| 2026-05-07 17:36 | 47.73125 | 12.73209 | 35054 ft | 471 kts | 136° |
| 2026-05-07 17:36 | 47.68631 | 12.80286 | 35046 ft | 471 kts | 137° |
| 2026-05-07 17:37 | 47.64055 | 12.87262 | 35051 ft | 472 kts | 139° |
| 2026-05-07 17:37 | 47.59381 | 12.94095 | 35060 ft | 472 kts | 139° |
| 2026-05-07 17:38 | 47.54701 | 13.00904 | 35064 ft | 472 kts | 139° |
| 2026-05-07 17:38 | 47.50029 | 13.07743 | 35054 ft | 472 kts | 139° |
| 2026-05-07 17:39 | 47.45374 | 13.14588 | 35049 ft | 472 kts | 139° |
| 2026-05-07 17:39 | 47.40708 | 13.21436 | 35055 ft | 473 kts | 139° |
| 2026-05-07 17:40 | 47.36060 | 13.28231 | 35062 ft | 474 kts | 139° |
| 2026-05-07 17:40 | 47.31495 | 13.35244 | 35062 ft | 477 kts | 134° |
| 2026-05-07 17:41 | 47.27224 | 13.42718 | 35053 ft | 477 kts | 134° |
| 2026-05-07 17:41 | 47.22946 | 13.50172 | 35059 ft | 476 kts | 134° |
| 2026-05-07 17:42 | 47.18663 | 13.57616 | 35051 ft | 477 kts | 134° |
| 2026-05-07 17:42 | 47.14373 | 13.65053 | 35044 ft | 477 kts | 134° |
| 2026-05-07 17:43 | 47.10071 | 13.72493 | 35047 ft | 478 kts | 135° |
| 2026-05-07 17:43 | 47.05765 | 13.79925 | 35049 ft | 478 kts | 135° |
| 2026-05-07 17:44 | 47.01459 | 13.87341 | 35040 ft | 478 kts | 135° |
| 2026-05-07 17:44 | 46.97140 | 13.94740 | 35038 ft | 478 kts | 135° |
| 2026-05-07 17:45 | 46.92849 | 14.02081 | 35011 ft | 478 kts | 135° |
| 2026-05-07 17:45 | 46.88527 | 14.09449 | 35002 ft | 478 kts | 135° |
| 2026-05-07 17:46 | 46.84192 | 14.16819 | 35012 ft | 478 kts | 135° |
| 2026-05-07 17:46 | 46.79853 | 14.24190 | 35018 ft | 479 kts | 135° |
| 2026-05-07 17:47 | 46.75503 | 14.31549 | 35023 ft | 479 kts | 136° |
| 2026-05-07 17:47 | 46.71152 | 14.38888 | 35015 ft | 478 kts | 136° |
| 2026-05-07 17:48 | 46.66801 | 14.46219 | 35005 ft | 478 kts | 136° |
| 2026-05-07 17:48 | 46.62447 | 14.53522 | 35011 ft | 478 kts | 136° |
| 2026-05-07 17:49 | 46.58199 | 14.60994 | 35004 ft | 480 kts | 134° |
| 2026-05-07 17:49 | 46.54089 | 14.68658 | 34976 ft | 481 kts | 133° |
| 2026-05-07 17:50 | 46.49971 | 14.76310 | 34976 ft | 480 kts | 134° |
| 2026-05-07 17:50 | 46.45803 | 14.83878 | 34976 ft | 479 kts | 134° |
| 2026-05-07 17:51 | 46.41622 | 14.91398 | 34977 ft | 479 kts | 134° |
| 2026-05-07 17:51 | 46.37435 | 14.98916 | 34969 ft | 480 kts | 135° |
| 2026-05-07 17:52 | 46.33241 | 15.06442 | 34958 ft | 480 kts | 135° |
| 2026-05-07 17:52 | 46.29045 | 15.13970 | 34973 ft | 481 kts | 135° |
| 2026-05-07 17:53 | 46.24851 | 15.21485 | 34977 ft | 481 kts | 135° |
| 2026-05-07 17:53 | 46.20640 | 15.28989 | 34980 ft | 481 kts | 135° |
| 2026-05-07 17:54 | 46.16448 | 15.36428 | 34977 ft | 480 kts | 135° |
| 2026-05-07 17:54 | 46.12239 | 15.43891 | 34974 ft | 480 kts | 135° |
| 2026-05-07 17:55 | 46.08037 | 15.51348 | 34993 ft | 479 kts | 135° |
| 2026-05-07 17:55 | 46.03842 | 15.58773 | 35002 ft | 478 kts | 135° |
| 2026-05-07 17:56 | 45.99631 | 15.66165 | 35002 ft | 477 kts | 135° |
| 2026-05-07 17:56 | 45.95242 | 15.73250 | 35002 ft | 471 kts | 141° |
| 2026-05-07 17:57 | 45.91403 | 15.78805 | 35003 ft | 472 kts | 141° |
| 2026-05-07 17:57 | 45.86004 | 15.86623 | 35000 ft | 472 kts | 141° |
| 2026-05-07 17:58 | 45.82167 | 15.92166 | 34988 ft | 471 kts | 141° |
| 2026-05-07 17:58 | 45.77541 | 15.98817 | 35025 ft | 470 kts | 141° |
| 2026-05-07 17:59 | 45.72925 | 16.05441 | 35020 ft | 470 kts | 141° |
| 2026-05-07 17:59 | 45.68307 | 16.12050 | 35030 ft | 469 kts | 141° |
| 2026-05-07 18:00 | 45.63690 | 16.18645 | 35030 ft | 469 kts | 141° |
| 2026-05-07 18:00 | 45.59079 | 16.25219 | 35011 ft | 468 kts | 141° |
| 2026-05-07 18:01 | 45.54466 | 16.31782 | 35029 ft | 468 kts | 141° |
| 2026-05-07 18:01 | 45.49848 | 16.38317 | 35034 ft | 467 kts | 141° |
| 2026-05-07 18:02 | 45.42934 | 16.48101 | 35042 ft | 467 kts | 141° |
| 2026-05-07 18:03 | 45.38353 | 16.54570 | 35033 ft | 467 kts | 142° |
| 2026-05-07 18:03 | 45.33743 | 16.61055 | 35018 ft | 466 kts | 141° |
| 2026-05-07 18:04 | 45.29123 | 16.67534 | 35032 ft | 467 kts | 142° |
| 2026-05-07 18:04 | 45.24503 | 16.73998 | 35043 ft | 467 kts | 142° |
| 2026-05-07 18:05 | 45.19873 | 16.80454 | 35024 ft | 466 kts | 141° |
| 2026-05-07 18:05 | 45.15247 | 16.86907 | 35034 ft | 466 kts | 141° |
| 2026-05-07 18:06 | 45.10625 | 16.93343 | 35037 ft | 466 kts | 141° |
| 2026-05-07 18:06 | 45.05989 | 16.99771 | 35038 ft | 466 kts | 142° |
| 2026-05-07 18:07 | 45.01341 | 17.06179 | 35043 ft | 467 kts | 142° |
| 2026-05-07 18:07 | 44.96691 | 17.12593 | 35022 ft | 467 kts | 142° |
| 2026-05-07 18:08 | 44.92039 | 17.18998 | 35029 ft | 468 kts | 142° |
| 2026-05-07 18:08 | 44.87373 | 17.25397 | 35034 ft | 468 kts | 142° |
| 2026-05-07 18:09 | 44.82698 | 17.31792 | 35027 ft | 468 kts | 142° |
| 2026-05-07 18:09 | 44.78018 | 17.38184 | 35017 ft | 469 kts | 142° |
| 2026-05-07 18:10 | 44.73367 | 17.44522 | 35025 ft | 469 kts | 142° |
| 2026-05-07 18:10 | 44.68675 | 17.50905 | 35030 ft | 469 kts | 142° |
| 2026-05-07 18:11 | 44.63979 | 17.57285 | 35046 ft | 469 kts | 142° |
| 2026-05-07 18:11 | 44.59286 | 17.63647 | 35032 ft | 469 kts | 141° |
| 2026-05-07 18:12 | 44.54577 | 17.69996 | 35023 ft | 469 kts | 142° |
| 2026-05-07 18:12 | 44.49858 | 17.76337 | 35028 ft | 470 kts | 142° |
| 2026-05-07 18:13 | 44.45140 | 17.82677 | 35029 ft | 471 kts | 142° |
| 2026-05-07 18:13 | 44.40406 | 17.89033 | 35022 ft | 472 kts | 141° |
| 2026-05-07 18:14 | 44.35673 | 17.95367 | 35039 ft | 471 kts | 142° |
| 2026-05-07 18:14 | 44.30929 | 18.01685 | 35033 ft | 471 kts | 142° |
| 2026-05-07 18:15 | 44.26178 | 18.07999 | 35043 ft | 472 kts | 142° |
| 2026-05-07 18:15 | 44.21419 | 18.14316 | 35029 ft | 472 kts | 142° |
| 2026-05-07 18:16 | 44.16666 | 18.20629 | 35048 ft | 473 kts | 142° |
| 2026-05-07 18:16 | 44.11934 | 18.26897 | 35054 ft | 472 kts | 142° |
| 2026-05-07 18:17 | 44.07168 | 18.33177 | 35063 ft | 472 kts | 142° |
| 2026-05-07 18:17 | 44.02391 | 18.39463 | 35069 ft | 473 kts | 142° |
| 2026-05-07 18:18 | 43.97609 | 18.45741 | 35071 ft | 473 kts | 142° |
| 2026-05-07 18:18 | 43.92815 | 18.52014 | 35073 ft | 474 kts | 142° |
| 2026-05-07 18:19 | 43.88015 | 18.58286 | 35077 ft | 474 kts | 142° |
| 2026-05-07 18:19 | 43.83213 | 18.64553 | 35067 ft | 474 kts | 142° |
| 2026-05-07 18:20 | 43.78403 | 18.70802 | 35057 ft | 475 kts | 142° |
| 2026-05-07 18:20 | 43.73573 | 18.77061 | 35067 ft | 476 kts | 142° |
| 2026-05-07 18:21 | 43.68743 | 18.83311 | 35076 ft | 476 kts | 142° |
| 2026-05-07 18:21 | 43.63907 | 18.89555 | 35071 ft | 476 kts | 142° |
| 2026-05-07 18:22 | 43.59062 | 18.95802 | 35049 ft | 477 kts | 142° |
| 2026-05-07 18:22 | 43.54199 | 19.02056 | 35052 ft | 478 kts | 142° |
| 2026-05-07 18:23 | 43.49323 | 19.08306 | 35060 ft | 479 kts | 142° |
| 2026-05-07 18:23 | 43.44431 | 19.14568 | 35076 ft | 480 kts | 142° |
| 2026-05-07 18:24 | 43.39568 | 19.20776 | 35067 ft | 481 kts | 142° |
| 2026-05-07 18:24 | 43.34665 | 19.27029 | 35078 ft | 481 kts | 142° |
| 2026-05-07 18:25 | 43.29751 | 19.33273 | 35061 ft | 481 kts | 143° |
| 2026-05-07 18:25 | 43.24824 | 19.39511 | 35065 ft | 483 kts | 143° |
| 2026-05-07 18:26 | 43.19880 | 19.45761 | 35070 ft | 484 kts | 143° |
| 2026-05-07 18:26 | 43.14925 | 19.52007 | 35078 ft | 484 kts | 142° |
| 2026-05-07 18:27 | 43.09972 | 19.58247 | 35091 ft | 484 kts | 142° |
| 2026-05-07 18:27 | 43.05009 | 19.64487 | 35095 ft | 485 kts | 143° |
| 2026-05-07 18:28 | 43.00038 | 19.70715 | 35099 ft | 485 kts | 143° |
| 2026-05-07 18:28 | 42.95071 | 19.76934 | 35109 ft | 485 kts | 143° |
| 2026-05-07 18:29 | 42.90093 | 19.83148 | 35090 ft | 485 kts | 142° |
| 2026-05-07 18:29 | 42.85111 | 19.89360 | 35082 ft | 486 kts | 143° |
| 2026-05-07 18:30 | 42.80107 | 19.95560 | 35084 ft | 487 kts | 143° |
| 2026-05-07 18:30 | 42.75101 | 20.01817 | 35098 ft | 491 kts | 139° |
| 2026-05-07 18:31 | 42.70670 | 20.08953 | 35095 ft | 495 kts | 134° |
| 2026-05-07 18:31 | 42.66293 | 20.16198 | 35083 ft | 496 kts | 134° |
| 2026-05-07 18:32 | 42.61924 | 20.23372 | 35104 ft | 496 kts | 134° |
| 2026-05-07 18:32 | 42.57493 | 20.30628 | 35104 ft | 497 kts | 134° |
| 2026-05-07 18:33 | 42.53113 | 20.37812 | 35078 ft | 499 kts | 134° |
| 2026-05-07 18:33 | 42.48683 | 20.45072 | 35094 ft | 500 kts | 134° |
| 2026-05-07 18:34 | 42.44239 | 20.52324 | 35072 ft | 501 kts | 134° |
| 2026-05-07 18:34 | 42.39773 | 20.59578 | 35093 ft | 502 kts | 134° |
| 2026-05-07 18:35 | 42.35297 | 20.66832 | 35113 ft | 502 kts | 134° |
| 2026-05-07 18:35 | 42.30823 | 20.74082 | 35116 ft | 503 kts | 134° |
| 2026-05-07 18:36 | 42.26329 | 20.81348 | 35092 ft | 505 kts | 134° |
| 2026-05-07 18:36 | 42.21800 | 20.88624 | 35094 ft | 507 kts | 134° |
| 2026-05-07 18:37 | 42.17260 | 20.95908 | 35092 ft | 509 kts | 134° |
| 2026-05-07 18:37 | 42.12704 | 21.03223 | 35101 ft | 510 kts | 134° |
| 2026-05-07 18:38 | 42.07771 | 21.09987 | 35110 ft | 505 kts | 142° |
| 2026-05-07 18:38 | 42.02657 | 21.16468 | 35087 ft | 506 kts | 142° |
| 2026-05-07 18:39 | 41.97516 | 21.22980 | 35078 ft | 509 kts | 142° |
| 2026-05-07 18:39 | 41.92351 | 21.29520 | 35081 ft | 512 kts | 142° |
| 2026-05-07 18:40 | 41.87194 | 21.36049 | 35088 ft | 514 kts | 142° |
| 2026-05-07 18:40 | 41.81981 | 21.42622 | 35092 ft | 515 kts | 142° |
| 2026-05-07 18:41 | 41.76761 | 21.49170 | 35077 ft | 515 kts | 143° |
| 2026-05-07 18:41 | 41.71509 | 21.55742 | 35069 ft | 518 kts | 143° |
| 2026-05-07 18:42 | 41.66228 | 21.62330 | 35077 ft | 520 kts | 143° |
| 2026-05-07 18:42 | 41.60930 | 21.68943 | 35084 ft | 522 kts | 143° |
| 2026-05-07 18:43 | 41.55611 | 21.75572 | 35106 ft | 523 kts | 143° |
| 2026-05-07 18:43 | 41.50277 | 21.82196 | 35085 ft | 524 kts | 143° |
| 2026-05-07 18:44 | 41.44927 | 21.88818 | 35084 ft | 526 kts | 143° |
| 2026-05-07 18:44 | 41.39542 | 21.95459 | 35094 ft | 528 kts | 143° |
| 2026-05-07 18:45 | 41.34137 | 22.02107 | 35103 ft | 529 kts | 143° |
| 2026-05-07 18:45 | 41.28730 | 22.08753 | 35116 ft | 530 kts | 143° |
| 2026-05-07 18:46 | 41.23315 | 22.15409 | 35097 ft | 530 kts | 143° |
| 2026-05-07 18:46 | 41.17882 | 22.22064 | 35104 ft | 532 kts | 143° |
| 2026-05-07 18:47 | 41.12353 | 22.28531 | 35114 ft | 529 kts | 147° |
| 2026-05-07 18:47 | 41.06649 | 22.34578 | 35124 ft | 528 kts | 149° |
| 2026-05-07 18:48 | 41.00831 | 22.40608 | 35129 ft | 528 kts | 148° |
| 2026-05-07 18:48 | 40.95130 | 22.46659 | 35115 ft | 530 kts | 148° |
| 2026-05-07 18:49 | 40.89409 | 22.52818 | 35114 ft | 531 kts | 147° |
| 2026-05-07 18:49 | 40.83666 | 22.58987 | 35120 ft | 532 kts | 148° |
| 2026-05-07 18:50 | 40.78832 | 22.64135 | 35126 ft | 533 kts | 148° |
| 2026-05-07 18:50 | 40.73097 | 22.70215 | 35130 ft | 533 kts | 148° |
| 2026-05-07 18:51 | 40.67307 | 22.76328 | 35118 ft | 533 kts | 148° |
| 2026-05-07 18:51 | 40.61511 | 22.82452 | 35111 ft | 535 kts | 148° |
| 2026-05-07 18:52 | 40.55709 | 22.88577 | 35111 ft | 536 kts | 148° |
| 2026-05-07 18:52 | 40.49885 | 22.94699 | 35118 ft | 536 kts | 148° |
| 2026-05-07 18:53 | 40.44217 | 23.01118 | 35123 ft | 544 kts | 138° |
| 2026-05-07 18:53 | 40.39023 | 23.08331 | 35128 ft | 544 kts | 138° |
| 2026-05-07 18:54 | 40.33817 | 23.15544 | 35133 ft | 544 kts | 137° |
| 2026-05-07 18:54 | 40.28597 | 23.22734 | 35135 ft | 544 kts | 138° |
| 2026-05-07 18:55 | 40.23373 | 23.29896 | 35142 ft | 544 kts | 138° |
| 2026-05-07 18:55 | 40.18141 | 23.37056 | 35113 ft | 544 kts | 138° |
| 2026-05-07 18:56 | 40.12913 | 23.44221 | 35124 ft | 545 kts | 137° |
| 2026-05-07 18:56 | 40.07672 | 23.51377 | 35129 ft | 545 kts | 137° |
| 2026-05-07 18:57 | 40.02451 | 23.58480 | 35132 ft | 546 kts | 137° |
| 2026-05-07 18:57 | 39.97193 | 23.65623 | 35137 ft | 546 kts | 137° |
| 2026-05-07 18:58 | 39.91926 | 23.72762 | 35142 ft | 546 kts | 138° |
| 2026-05-07 18:58 | 39.86651 | 23.79891 | 35128 ft | 547 kts | 137° |
| 2026-05-07 18:59 | 39.81367 | 23.87016 | 35126 ft | 547 kts | 137° |
| 2026-05-07 18:59 | 39.76079 | 23.94131 | 35131 ft | 548 kts | 137° |
| 2026-05-07 19:00 | 39.70777 | 24.01248 | 35137 ft | 548 kts | 137° |
| 2026-05-07 19:00 | 39.65468 | 24.08353 | 35138 ft | 548 kts | 137° |
| 2026-05-07 19:01 | 39.60160 | 24.15440 | 35153 ft | 548 kts | 137° |
| 2026-05-07 19:01 | 39.54845 | 24.22539 | 35133 ft | 549 kts | 137° |
| 2026-05-07 19:02 | 39.49517 | 24.29627 | 35131 ft | 549 kts | 137° |
| 2026-05-07 19:02 | 39.44180 | 24.36689 | 35131 ft | 549 kts | 137° |
| 2026-05-07 19:03 | 39.38874 | 24.43696 | 35143 ft | 549 kts | 137° |
| 2026-05-07 19:03 | 39.33530 | 24.50762 | 35147 ft | 550 kts | 136° |
| 2026-05-07 19:04 | 39.28213 | 24.57845 | 35132 ft | 550 kts | 136° |
| 2026-05-07 19:04 | 39.22913 | 24.64965 | 35131 ft | 550 kts | 136° |
| 2026-05-07 19:05 | 39.17604 | 24.72066 | 35141 ft | 550 kts | 136° |
| 2026-05-07 19:05 | 39.12282 | 24.79130 | 35141 ft | 550 kts | 136° |
| 2026-05-07 19:06 | 39.06935 | 24.86171 | 35146 ft | 550 kts | 137° |
| 2026-05-07 19:06 | 38.98837 | 24.96628 | 35125 ft | 550 kts | 137° |
| 2026-05-07 19:07 | 38.93438 | 25.03575 | 35142 ft | 550 kts | 137° |
| 2026-05-07 19:07 | 38.88039 | 25.10544 | 35142 ft | 550 kts | 136° |
| 2026-05-07 19:08 | 38.82644 | 25.17506 | 35146 ft | 550 kts | 137° |
| 2026-05-07 19:08 | 38.77236 | 25.24462 | 35149 ft | 551 kts | 137° |
| 2026-05-07 19:09 | 38.71825 | 25.31395 | 35157 ft | 551 kts | 137° |
| 2026-05-07 19:09 | 38.66435 | 25.38275 | 35149 ft | 551 kts | 136° |
| 2026-05-07 19:10 | 38.61003 | 25.45193 | 35159 ft | 551 kts | 136° |
| 2026-05-07 19:10 | 38.55569 | 25.52118 | 35158 ft | 552 kts | 136° |
| 2026-05-07 19:11 | 38.50129 | 25.59034 | 35164 ft | 552 kts | 136° |
| 2026-05-07 19:11 | 38.44687 | 25.65927 | 35174 ft | 552 kts | 136° |
| 2026-05-07 19:12 | 38.39230 | 25.72822 | 35151 ft | 552 kts | 136° |
| 2026-05-07 19:12 | 38.33778 | 25.79709 | 35160 ft | 552 kts | 136° |
| 2026-05-07 19:13 | 38.28273 | 25.86529 | 35161 ft | 551 kts | 142° |
| 2026-05-07 19:13 | 38.21920 | 25.91820 | 35159 ft | 542 kts | 160° |
| 2026-05-07 19:14 | 38.14944 | 25.95228 | 35170 ft | 536 kts | 166° |
| 2026-05-07 19:14 | 38.07927 | 25.98448 | 35146 ft | 537 kts | 166° |
| 2026-05-07 19:15 | 38.00886 | 26.01669 | 35151 ft | 538 kts | 166° |
| 2026-05-07 19:15 | 37.93827 | 26.04862 | 35151 ft | 539 kts | 166° |
| 2026-05-07 19:16 | 37.86767 | 26.08043 | 35142 ft | 539 kts | 166° |
| 2026-05-07 19:16 | 37.79748 | 26.11220 | 35162 ft | 539 kts | 166° |
| 2026-05-07 19:17 | 37.72678 | 26.14410 | 35170 ft | 539 kts | 166° |
| 2026-05-07 19:17 | 37.65613 | 26.17574 | 35175 ft | 539 kts | 166° |
| 2026-05-07 19:18 | 37.58543 | 26.20741 | 35176 ft | 539 kts | 166° |
| 2026-05-07 19:18 | 37.51488 | 26.23909 | 35173 ft | 539 kts | 166° |
| 2026-05-07 19:19 | 37.44421 | 26.27073 | 35192 ft | 539 kts | 166° |
| 2026-05-07 19:19 | 37.37344 | 26.30222 | 35163 ft | 540 kts | 166° |
| 2026-05-07 19:20 | 37.30267 | 26.33367 | 35162 ft | 540 kts | 166° |
| 2026-05-07 19:20 | 37.23178 | 26.36527 | 35029 ft | 541 kts | 166° |
| 2026-05-07 19:21 | 37.19632 | 26.38106 | 34789 ft | 540 kts | 166° |
| 2026-05-07 19:21 | 37.16088 | 26.39679 | 34439 ft | 540 kts | 166° |
| 2026-05-07 19:21 | 37.12547 | 26.41245 | 33697 ft | 541 kts | 166° |
| 2026-05-07 19:21 | 37.09020 | 26.42807 | 33208 ft | 535 kts | 166° |
| 2026-05-07 19:22 | 37.05527 | 26.44354 | 32673 ft | 530 kts | 165° |
| 2026-05-07 19:22 | 37.02067 | 26.45885 | 32154 ft | 525 kts | 165° |
| 2026-05-07 19:22 | 36.98639 | 26.47401 | 31631 ft | 520 kts | 165° |
| 2026-05-07 19:22 | 36.95281 | 26.49041 | 31086 ft | 518 kts | 157° |
| 2026-05-07 19:23 | 36.92193 | 26.51331 | 30586 ft | 516 kts | 145° |
| 2026-05-07 19:23 | 36.89503 | 26.54253 | 30221 ft | 509 kts | 134° |
| 2026-05-07 19:23 | 36.87276 | 26.57643 | 29519 ft | 501 kts | 123° |
| 2026-05-07 19:23 | 36.85598 | 26.61383 | 28939 ft | 486 kts | 112° |
| 2026-05-07 19:24 | 36.84280 | 26.65223 | 28439 ft | 478 kts | 111° |
| 2026-05-07 19:24 | 36.82981 | 26.69011 | 27970 ft | 472 kts | 111° |
| 2026-05-07 19:24 | 36.81695 | 26.72749 | 27511 ft | 465 kts | 111° |
| 2026-05-07 19:24 | 36.80423 | 26.76434 | 27068 ft | 459 kts | 111° |
| 2026-05-07 19:25 | 36.79168 | 26.80065 | 26633 ft | 453 kts | 111° |
| 2026-05-07 19:25 | 36.77929 | 26.83651 | 26209 ft | 447 kts | 111° |
| 2026-05-07 19:25 | 36.76706 | 26.87188 | 25812 ft | 441 kts | 111° |
| 2026-05-07 19:25 | 36.75499 | 26.90671 | 25396 ft | 436 kts | 112° |
| 2026-05-07 19:26 | 36.74302 | 26.94118 | 24999 ft | 430 kts | 112° |
| 2026-05-07 19:26 | 36.73119 | 26.97524 | 24608 ft | 426 kts | 112° |
| 2026-05-07 19:26 | 36.71950 | 27.00890 | 24211 ft | 421 kts | 112° |
| 2026-05-07 19:26 | 36.70795 | 27.04219 | 23805 ft | 416 kts | 112° |
| 2026-05-07 19:27 | 36.69652 | 27.07512 | 23363 ft | 411 kts | 112° |
| 2026-05-07 19:27 | 36.68528 | 27.10753 | 22959 ft | 405 kts | 112° |
| 2026-05-07 19:27 | 36.67417 | 27.13954 | 22546 ft | 400 kts | 112° |
| 2026-05-07 19:27 | 36.66320 | 27.17108 | 22142 ft | 394 kts | 112° |
| 2026-05-07 19:28 | 36.65231 | 27.20219 | 21716 ft | 389 kts | 112° |
| 2026-05-07 19:28 | 36.64167 | 27.23246 | 21311 ft | 385 kts | 112° |
| 2026-05-07 19:28 | 36.63099 | 27.26280 | 20871 ft | 381 kts | 112° |
| 2026-05-07 19:28 | 36.62045 | 27.29285 | 20476 ft | 377 kts | 112° |
| 2026-05-07 19:29 | 36.61003 | 27.32256 | 20058 ft | 373 kts | 112° |
| 2026-05-07 19:29 | 36.59966 | 27.35205 | 19646 ft | 370 kts | 112° |
| 2026-05-07 19:29 | 36.58933 | 27.38129 | 19226 ft | 368 kts | 112° |
| 2026-05-07 19:29 | 36.57908 | 27.41031 | 18808 ft | 365 kts | 112° |
| 2026-05-07 19:30 | 36.56890 | 27.43916 | 18386 ft | 363 kts | 112° |
| 2026-05-07 19:30 | 36.55882 | 27.46776 | 17940 ft | 360 kts | 112° |
| 2026-05-07 19:30 | 36.54883 | 27.49615 | 17525 ft | 356 kts | 112° |
| 2026-05-07 19:30 | 36.53893 | 27.52422 | 17114 ft | 353 kts | 112° |
| 2026-05-07 19:31 | 36.52912 | 27.55200 | 16703 ft | 349 kts | 112° |
| 2026-05-07 19:31 | 36.51939 | 27.57953 | 16301 ft | 346 kts | 112° |
| 2026-05-07 19:31 | 36.50972 | 27.60681 | 15897 ft | 344 kts | 112° |
| 2026-05-07 19:31 | 36.50004 | 27.63409 | 15348 ft | 346 kts | 112° |
| 2026-05-07 19:32 | 36.49036 | 27.66131 | 14934 ft | 344 kts | 112° |
| 2026-05-07 19:32 | 36.48071 | 27.68839 | 14535 ft | 341 kts | 112° |
| 2026-05-07 19:32 | 36.47111 | 27.71529 | 14146 ft | 339 kts | 111° |
| 2026-05-07 19:32 | 36.46396 | 27.74295 | 13706 ft | 334 kts | 99° |
| 2026-05-07 19:33 | 36.46013 | 27.77121 | 13310 ft | 330 kts | 96° |
| 2026-05-07 19:33 | 36.45646 | 27.79911 | 12924 ft | 326 kts | 97° |
| 2026-05-07 19:33 | 36.45278 | 27.82677 | 12545 ft | 323 kts | 97° |
| 2026-05-07 19:33 | 36.44907 | 27.85414 | 12161 ft | 320 kts | 97° |
| 2026-05-07 19:34 | 36.44536 | 27.88124 | 11787 ft | 317 kts | 97° |
| 2026-05-07 19:34 | 36.44171 | 27.90807 | 11418 ft | 314 kts | 97° |
| 2026-05-07 19:34 | 36.43815 | 27.93426 | 11051 ft | 311 kts | 97° |
| 2026-05-07 19:34 | 36.43458 | 27.96060 | 10680 ft | 309 kts | 98° |
| 2026-05-07 19:35 | 36.43102 | 27.98680 | 10319 ft | 306 kts | 98° |
| 2026-05-07 19:35 | 36.42751 | 28.01256 | 10180 ft | 301 kts | 98° |
| 2026-05-07 19:35 | 36.42403 | 28.03822 | 10058 ft | 301 kts | 98° |
| 2026-05-07 19:35 | 36.42054 | 28.06390 | 9770 ft | 303 kts | 98° |
| 2026-05-07 19:36 | 36.41708 | 28.08945 | 9316 ft | 297 kts | 98° |
| 2026-05-07 19:36 | 36.41367 | 28.11455 | 8911 ft | 292 kts | 98° |
| 2026-05-07 19:36 | 36.41027 | 28.13921 | 8476 ft | 289 kts | 98° |
| 2026-05-07 19:36 | 36.40688 | 28.16363 | 8089 ft | 285 kts | 98° |
| 2026-05-07 19:37 | 36.40352 | 28.18784 | 7715 ft | 284 kts | 98° |
| 2026-05-07 19:37 | 36.40021 | 28.21168 | 7447 ft | 278 kts | 98° |
| 2026-05-07 19:37 | 36.39699 | 28.23509 | 7180 ft | 273 kts | 98° |
| 2026-05-07 19:37 | 36.39383 | 28.25808 | 6913 ft | 267 kts | 98° |
| 2026-05-07 19:38 | 36.39073 | 28.28065 | 6651 ft | 263 kts | 98° |
| 2026-05-07 19:38 | 36.38770 | 28.30275 | 6382 ft | 258 kts | 98° |
| 2026-05-07 19:38 | 36.38475 | 28.32453 | 6109 ft | 253 kts | 96° |
| 2026-05-07 19:38 | 36.38552 | 28.34590 | 5834 ft | 246 kts | 74° |
| 2026-05-07 19:39 | 36.39248 | 28.36479 | 5585 ft | 237 kts | 53° |
| 2026-05-07 19:39 | 36.40395 | 28.37880 | 5311 ft | 228 kts | 33° |
| 2026-05-07 19:39 | 36.41809 | 28.38675 | 5042 ft | 221 kts | 14° |
| 2026-05-07 19:39 | 36.42808 | 28.38848 | 4876 ft | 217 kts | 1° |
| 2026-05-07 19:40 | 36.44282 | 28.38591 | 4625 ft | 214 kts | 343° |
| 2026-05-07 19:40 | 36.45606 | 28.37762 | 4372 ft | 214 kts | 324° |
| 2026-05-07 19:40 | 36.46640 | 28.36445 | 4098 ft | 214 kts | 306° |
| 2026-05-07 19:40 | 36.47273 | 28.34772 | 3910 ft | 216 kts | 287° |
| 2026-05-07 19:41 | 36.47433 | 28.32921 | 3694 ft | 217 kts | 268° |
| 2026-05-07 19:41 | 36.47089 | 28.31099 | 3436 ft | 217 kts | 252° |
| 2026-05-07 19:41 | 36.46575 | 28.29341 | 3155 ft | 215 kts | 252° |
| 2026-05-07 19:41 | 36.46070 | 28.27600 | 2873 ft | 213 kts | 252° |
| 2026-05-07 19:42 | 36.45569 | 28.25877 | 2598 ft | 212 kts | 252° |
| 2026-05-07 19:42 | 36.45071 | 28.24167 | 2326 ft | 208 kts | 252° |
| 2026-05-07 19:42 | 36.44590 | 28.22517 | 2057 ft | 198 kts | 252° |
| 2026-05-07 19:42 | 36.44130 | 28.20938 | 1786 ft | 190 kts | 253° |
| 2026-05-07 19:43 | 36.43695 | 28.19444 | 1539 ft | 177 kts | 252° |
| 2026-05-07 19:43 | 36.43292 | 28.18061 | 1323 ft | 163 kts | 252° |
| 2026-05-07 19:43 | 36.42917 | 28.16776 | 1107 ft | 153 kts | 252° |
| 2026-05-07 19:43 | 36.42566 | 28.15572 | 911 ft | 146 kts | 251° |
| 2026-05-07 19:44 | 36.42224 | 28.14398 | 718 ft | 144 kts | 250° |
| 2026-05-07 19:44 | 36.41885 | 28.13231 | 534 ft | 143 kts | 250° |
| 2026-05-07 19:44 | 36.41540 | 28.12075 | 374 ft | 146 kts | 250° |
| 2026-05-07 19:44 | 36.41201 | 28.10888 | 165 ft | 146 kts | 250° |
| 2026-05-07 19:45 | 36.40860 | 28.09713 | 35 ft | 139 kts | 250° |
| 2026-05-07 19:45 | 36.40574 | 28.08739 | 29 ft | 97 kts | 250° |
| 2026-05-07 19:45 | 36.40419 | 28.08214 | 27 ft | 35 kts | 249° |
| 2026-05-07 19:45 | 36.40348 | 28.08047 | 29 ft | 13 kts | 235° |
| 2026-05-07 19:46 | 36.40287 | 28.07965 | 28 ft | 10 kts | 222° |
| 2026-05-07 19:46 | 36.40236 | 28.07909 | 28 ft | 10 kts | 222° |
| 2026-05-07 19:46 | 36.40179 | 28.07854 | 28 ft | 10 kts | 202° |
| 2026-05-07 19:46 | 36.40142 | 28.07884 | 28 ft | 6 kts | 98° |
| 2026-05-07 19:47 | 36.40159 | 28.07948 | 28 ft | 11 kts | 70° |
| 2026-05-07 19:47 | 36.40189 | 28.08050 | 28 ft | 14 kts | 70° |
| 2026-05-07 19:47 | 36.40223 | 28.08167 | 28 ft | 15 kts | 70° |
| 2026-05-07 19:47 | 36.40264 | 28.08307 | 28 ft | 19 kts | 70° |
| 2026-05-07 19:48 | 36.40310 | 28.08464 | 28 ft | 20 kts | 70° |
| 2026-05-07 19:48 | 36.40354 | 28.08614 | 28 ft | 14 kts | 70° |
| 2026-05-07 19:48 | 36.40385 | 28.08717 | 28 ft | 10 kts | 69° |
| 2026-05-07 19:48 | 36.40402 | 28.08807 | 28 ft | 11 kts | 85° |
| 2026-05-07 19:49 | 36.40398 | 28.08902 | 28 ft | 11 kts | 95° |
| 2026-05-07 19:49 | 36.40398 | 28.08975 | 28 ft | 6 kts | 85° |
| 2026-05-07 19:49 | 36.40371 | 28.09012 | 28 ft | 7 kts | 157° |
| 2026-05-07 19:49 | 36.40339 | 28.09026 | 28 ft | 1 kts | 160° |